createdAt,value
2017-05-23T00:01:19.527Z,8.10
2017-05-23T00:03:48.628Z,6.64
2017-05-23T00:06:17.739Z,7.66
2017-05-23T00:08:46.870Z,8.26
2017-05-23T00:11:15.925Z,7.44
2017-05-23T00:13:45.161Z,7.62
2017-05-23T00:16:14.244Z,8.04
2017-05-23T00:18:43.319Z,7.96
2017-05-23T00:21:12.397Z,8.62
2017-05-23T00:23:41.472Z,7.36
2017-05-23T00:26:10.634Z,8.66
2017-05-23T00:28:39.725Z,8.94
2017-05-23T00:31:09.037Z,7.84
2017-05-23T00:33:38.041Z,8.62
2017-05-23T00:36:07.398Z,8.76
2017-05-23T00:38:36.504Z,8.38
2017-05-23T00:41:05.610Z,8.06
2017-05-23T00:43:34.763Z,7.90
2017-05-23T00:46:03.954Z,8.58
2017-05-23T00:48:33.025Z,8.40
2017-05-23T00:51:02.174Z,9.12
2017-05-23T00:53:31.248Z,8.70
2017-05-23T00:56:00.300Z,8.48
2017-05-23T00:58:29.475Z,9.44
2017-05-23T01:00:58.758Z,8.18
2017-05-23T01:03:28.100Z,8.42
2017-05-23T01:05:57.239Z,8.92
2017-05-23T01:08:26.330Z,8.26
2017-05-23T01:10:55.666Z,8.38
2017-05-23T01:13:24.777Z,9.08
2017-05-23T01:15:54.085Z,8.62
2017-05-23T01:18:23.358Z,8.66
2017-05-23T01:20:52.563Z,8.44
2017-05-23T01:23:21.913Z,8.56
2017-05-23T01:25:51.174Z,8.48
2017-05-23T01:28:20.282Z,8.78
2017-05-23T01:30:49.371Z,9.34
2017-05-23T01:33:18.553Z,8.80
2017-05-23T01:35:47.628Z,9.24
2017-05-23T01:38:16.803Z,8.90
2017-05-23T01:40:46.033Z,8.54
2017-05-23T01:43:15.339Z,8.70
2017-05-23T01:45:44.539Z,8.42
2017-05-23T01:48:13.740Z,8.84
2017-05-23T01:50:42.865Z,9.08
2017-05-23T01:53:11.907Z,9.18
2017-05-23T01:55:41.025Z,9.62
2017-05-23T01:58:10.105Z,8.04
2017-05-23T02:00:39.163Z,9.08
2017-05-23T02:03:08.367Z,9.06
2017-05-23T02:05:37.546Z,9.04
2017-05-23T02:08:06.644Z,9.36
2017-05-23T02:10:35.917Z,9.16
2017-05-23T02:13:05.071Z,8.48
2017-05-23T02:15:34.235Z,9.32
2017-05-23T02:18:03.339Z,8.94
2017-05-23T02:20:32.407Z,8.92
2017-05-23T02:23:01.751Z,10.66
2017-05-23T02:25:30.818Z,13.10
2017-05-23T02:27:59.901Z,11.80
2017-05-23T02:30:29.035Z,12.70
2017-05-23T02:32:58.365Z,12.76
2017-05-23T02:35:27.590Z,12.84
2017-05-23T02:37:56.673Z,12.38
2017-05-23T02:40:25.765Z,12.30
2017-05-23T02:42:54.817Z,12.94
2017-05-23T02:45:23.930Z,11.94
2017-05-23T02:47:53.040Z,11.66
2017-05-23T02:50:22.152Z,11.32
2017-05-23T02:52:51.381Z,11.14
2017-05-23T02:55:20.597Z,11.70
2017-05-23T02:57:49.794Z,12.66
2017-05-23T03:00:18.974Z,11.46
2017-05-23T03:02:48.058Z,11.28
2017-05-23T03:05:17.284Z,11.74
2017-05-23T03:07:46.376Z,10.92
2017-05-23T03:10:15.712Z,11.38
2017-05-23T03:12:44.843Z,11.00
2017-05-23T03:15:14.201Z,9.76
2017-05-23T03:17:43.339Z,10.32
2017-05-23T03:20:12.486Z,9.40
2017-05-23T03:22:41.527Z,9.62
2017-05-23T03:25:10.617Z,11.12
2017-05-23T03:27:39.998Z,11.00
2017-05-23T03:30:09.226Z,9.86
2017-05-23T03:32:38.579Z,10.94
2017-05-23T03:35:08.098Z,11.44
2017-05-23T03:37:37.158Z,12.36
2017-05-23T03:40:06.264Z,13.00
2017-05-23T03:42:35.366Z,13.26
2017-05-23T03:45:04.564Z,11.80
2017-05-23T03:47:33.665Z,11.62
2017-05-23T03:50:02.780Z,13.08
2017-05-23T03:52:31.941Z,12.14
2017-05-23T03:55:01.567Z,12.28
2017-05-23T03:57:30.735Z,13.14
2017-05-23T03:59:59.895Z,12.28
2017-05-23T04:02:29.230Z,12.00
2017-05-23T04:04:58.351Z,12.08
2017-05-23T04:07:27.902Z,13.16
2017-05-23T04:09:57.088Z,12.94
2017-05-23T04:12:26.516Z,13.02
2017-05-23T04:14:55.691Z,13.40
2017-05-23T04:17:24.789Z,12.80
2017-05-23T04:19:54.029Z,13.96
2017-05-23T04:22:23.360Z,12.80
2017-05-23T04:24:52.471Z,13.06
2017-05-23T04:27:21.728Z,13.54
2017-05-23T04:29:50.932Z,12.14
2017-05-23T04:32:20.118Z,12.50
2017-05-23T04:34:49.244Z,12.64
2017-05-23T04:37:18.381Z,11.26
2017-05-23T04:39:47.508Z,11.22
2017-05-23T04:42:16.939Z,11.26
2017-05-23T04:44:46.567Z,11.90
2017-05-23T04:47:15.643Z,12.74
2017-05-23T04:49:44.788Z,12.50
2017-05-23T04:52:14.099Z,12.20
2017-05-23T04:54:43.327Z,11.78
2017-05-23T04:57:12.588Z,12.58
2017-05-23T04:59:41.880Z,11.52
2017-05-23T05:02:11.009Z,12.72
2017-05-23T05:04:40.253Z,12.06
2017-05-23T05:07:10.662Z,12.98
2017-05-23T05:09:39.849Z,12.98
2017-05-23T05:12:08.958Z,13.98
2017-05-23T05:14:38.042Z,13.64
2017-05-23T05:17:07.174Z,12.56
2017-05-23T05:19:36.281Z,13.14
2017-05-23T05:22:05.560Z,13.72
2017-05-23T05:24:34.661Z,14.42
2017-05-23T05:27:03.902Z,13.88
2017-05-23T05:29:32.999Z,12.48
2017-05-23T05:32:02.261Z,14.56
2017-05-23T05:34:31.492Z,14.48
2017-05-23T05:37:00.794Z,14.06
2017-05-23T05:39:29.843Z,15.40
2017-05-23T05:41:58.896Z,15.76
2017-05-23T05:44:27.918Z,16.52
2017-05-23T05:46:56.941Z,14.72
2017-05-23T05:49:26.010Z,15.80
2017-05-23T05:51:55.160Z,13.58
2017-05-23T05:54:24.192Z,16.80
2017-05-23T05:56:53.261Z,14.86
2017-05-23T05:59:22.390Z,16.20
2017-05-23T06:01:51.425Z,15.40
2017-05-23T06:04:20.649Z,16.64
2017-05-23T06:06:49.666Z,17.58
2017-05-23T06:09:18.775Z,16.72
2017-05-23T06:11:48.133Z,16.84
2017-05-23T06:14:23.095Z,15.50
2017-05-23T06:16:52.290Z,16.14
2017-05-23T06:19:21.578Z,17.54
2017-05-23T06:21:50.836Z,17.96
2017-05-23T06:24:19.918Z,17.60
2017-05-23T06:26:49.561Z,17.76
2017-05-23T06:29:18.700Z,17.28
2017-05-23T06:31:47.798Z,17.80
2017-05-23T06:34:17.062Z,17.76
2017-05-23T06:36:46.224Z,18.16
2017-05-23T06:39:15.749Z,19.30
2017-05-23T06:41:44.832Z,18.80
2017-05-23T06:44:13.920Z,17.78
2017-05-23T06:46:43.007Z,18.34
2017-05-23T06:49:12.242Z,17.98
2017-05-23T06:51:41.412Z,16.88
2017-05-23T06:54:10.582Z,16.08
2017-05-23T06:56:39.649Z,18.30
2017-05-23T06:59:08.719Z,16.14
2017-05-23T07:01:37.829Z,17.50
2017-05-23T07:04:07.024Z,17.16
2017-05-23T07:06:36.187Z,17.08
2017-05-23T07:09:05.237Z,16.50
2017-05-23T07:11:34.315Z,16.64
2017-05-23T07:14:03.409Z,16.20
2017-05-23T07:16:32.541Z,18.02
2017-05-23T07:19:01.592Z,15.80
2017-05-23T07:21:30.723Z,16.82
2017-05-23T07:23:59.895Z,15.24
2017-05-23T07:26:29.262Z,15.20
2017-05-23T07:28:58.299Z,14.56
2017-05-23T07:31:27.407Z,14.72
2017-05-23T07:33:56.437Z,13.88
2017-05-23T07:36:25.533Z,14.20
2017-05-23T07:38:55.196Z,14.22
2017-05-23T07:41:24.297Z,13.62
2017-05-23T07:43:53.436Z,11.48
2017-05-23T07:46:22.720Z,12.72
2017-05-23T07:48:51.780Z,12.22
2017-05-23T07:51:21.210Z,11.58
2017-05-23T07:53:50.517Z,12.44
2017-05-23T07:56:19.831Z,11.92
2017-05-23T07:58:48.913Z,13.14
2017-05-23T08:01:18.217Z,12.60
2017-05-23T08:03:47.377Z,12.74
2017-05-23T08:06:16.430Z,12.04
2017-05-23T08:08:45.616Z,12.20
2017-05-23T08:11:14.981Z,11.04
2017-05-23T08:13:44.111Z,12.12
2017-05-23T08:16:13.193Z,10.20
2017-05-23T08:18:42.285Z,12.24
2017-05-23T08:21:11.492Z,10.94
2017-05-23T08:23:40.555Z,11.40
2017-05-23T08:26:09.584Z,12.52
2017-05-23T08:28:38.661Z,11.88
2017-05-23T08:31:07.764Z,11.36
2017-05-23T08:33:37.143Z,11.48
2017-05-23T08:36:06.269Z,11.24
2017-05-23T08:38:35.323Z,9.64
2017-05-23T08:41:04.411Z,10.82
2017-05-23T08:43:33.495Z,10.50
2017-05-23T08:46:02.849Z,10.52
2017-05-23T08:48:31.977Z,10.38
2017-05-23T08:51:01.166Z,10.00
2017-05-23T08:53:30.207Z,9.20
2017-05-23T08:55:59.332Z,10.36
2017-05-23T08:58:28.364Z,10.58
2017-05-23T09:00:57.624Z,8.68
2017-05-23T09:03:26.868Z,10.20
2017-05-23T09:05:56.004Z,9.44
2017-05-23T09:08:25.034Z,10.72
2017-05-23T09:10:54.179Z,9.34
2017-05-23T09:13:23.470Z,10.08
2017-05-23T09:15:52.701Z,10.20
2017-05-23T09:18:21.888Z,9.38
2017-05-23T09:20:50.957Z,9.48
2017-05-23T09:23:20.494Z,9.20
2017-05-23T09:25:55.258Z,10.38
2017-05-23T09:28:24.908Z,9.82
2017-05-23T09:30:54.020Z,9.88
2017-05-23T09:33:23.444Z,10.60
2017-05-23T09:35:52.821Z,10.16
2017-05-23T09:38:22.121Z,8.80
2017-05-23T09:40:51.172Z,9.58
2017-05-23T09:43:20.310Z,10.06
2017-05-23T09:45:49.357Z,9.84
2017-05-23T09:48:18.411Z,10.92
2017-05-23T09:50:47.431Z,8.64
2017-05-23T09:53:16.554Z,10.04
2017-05-23T09:55:45.586Z,9.96
2017-05-23T09:58:14.737Z,8.84
2017-05-23T10:00:43.745Z,9.40
2017-05-23T10:03:12.826Z,9.60
2017-05-23T10:05:41.858Z,12.00
2017-05-23T10:08:10.910Z,11.00
2017-05-23T10:10:39.931Z,10.62
2017-05-23T10:13:09.099Z,11.44
2017-05-23T10:15:38.126Z,10.32
2017-05-23T10:18:07.163Z,9.28
2017-05-23T10:20:36.284Z,9.96
2017-05-23T10:23:05.306Z,9.40
2017-05-23T10:25:34.334Z,8.82
2017-05-23T10:28:03.358Z,7.94
2017-05-23T10:30:32.424Z,8.32
2017-05-23T10:33:01.441Z,8.16
2017-05-23T10:35:30.518Z,7.98
2017-05-23T10:37:59.558Z,9.30
2017-05-23T10:40:28.629Z,8.38
2017-05-23T10:42:57.655Z,7.82
2017-05-23T10:45:26.697Z,9.20
2017-05-23T10:47:55.721Z,8.18
2017-05-23T10:50:24.787Z,10.40
2017-05-23T10:52:53.847Z,10.74
2017-05-23T10:55:22.878Z,8.52
2017-05-23T10:57:51.986Z,8.28
2017-05-23T11:00:21.099Z,9.10
2017-05-23T11:02:50.140Z,8.68
2017-05-23T11:05:19.162Z,7.68
2017-05-23T11:07:48.262Z,7.38
2017-05-23T11:10:17.279Z,7.92
2017-05-23T11:12:46.315Z,8.50
2017-05-23T11:15:15.428Z,8.60
2017-05-23T11:17:44.450Z,7.14
2017-05-23T11:20:13.463Z,6.82
2017-05-23T11:22:42.535Z,7.02
2017-05-23T11:25:11.579Z,6.52
2017-05-23T11:27:40.606Z,6.04
2017-05-23T11:30:09.621Z,6.96
2017-05-23T11:32:38.661Z,8.92
2017-05-23T11:35:07.681Z,7.74
2017-05-23T11:37:36.810Z,7.82
2017-05-23T11:40:05.829Z,7.32
2017-05-23T11:42:35.118Z,6.42
2017-05-23T11:45:04.147Z,7.50
2017-05-23T11:47:33.287Z,7.24
2017-05-23T11:50:02.305Z,7.12
2017-05-23T11:52:31.327Z,8.40
2017-05-23T11:55:00.397Z,7.06
2017-05-23T11:57:29.448Z,7.82
2017-05-23T11:59:58.563Z,7.54
2017-05-23T12:02:27.686Z,6.28
2017-05-23T12:04:56.755Z,6.78
2017-05-23T12:07:25.829Z,6.66
2017-05-23T12:09:54.890Z,7.36
2017-05-23T12:12:24.048Z,6.56
2017-05-23T12:14:53.057Z,6.50
2017-05-23T12:17:22.094Z,6.04
2017-05-23T12:19:51.113Z,7.02
2017-05-23T12:22:20.145Z,7.08
2017-05-23T12:24:49.165Z,5.62
2017-05-23T12:27:18.275Z,6.44
2017-05-23T12:29:47.300Z,6.30
2017-05-23T12:32:16.362Z,5.78
2017-05-23T12:34:45.378Z,5.86
2017-05-23T12:37:14.495Z,5.68
2017-05-23T12:39:43.498Z,5.38
2017-05-23T12:42:12.534Z,4.68
2017-05-23T12:44:41.620Z,4.80
2017-05-23T12:47:10.668Z,4.36
2017-05-23T12:49:39.689Z,4.80
2017-05-23T12:52:08.721Z,3.44
2017-05-23T12:54:37.802Z,3.78
2017-05-23T12:57:06.824Z,4.24
2017-05-23T12:59:35.862Z,3.38
2017-05-23T13:02:04.978Z,3.36
2017-05-23T13:04:34.026Z,3.10
2017-05-23T13:07:03.073Z,3.00
2017-05-23T13:09:32.135Z,2.76
2017-05-23T13:12:01.203Z,3.34
2017-05-23T13:14:30.239Z,3.10
2017-05-23T13:16:59.249Z,2.94
2017-05-23T13:19:28.308Z,2.62
2017-05-23T13:21:57.358Z,2.60
2017-05-23T13:24:26.524Z,2.92
2017-05-23T13:26:55.619Z,2.68
2017-05-23T13:29:24.671Z,2.94
2017-05-23T13:31:53.696Z,2.60
2017-05-23T13:34:22.723Z,2.26
2017-05-23T13:36:51.841Z,2.66
2017-05-23T13:39:20.882Z,2.70
2017-05-23T13:41:49.964Z,2.40
2017-05-23T13:44:18.972Z,2.70
2017-05-23T13:46:48.008Z,3.46
2017-05-23T13:49:17.010Z,3.46
2017-05-23T13:51:46.163Z,3.14
2017-05-23T13:54:15.176Z,3.30
2017-05-23T13:56:44.242Z,3.20
2017-05-23T13:59:13.263Z,3.06
2017-05-23T14:01:42.294Z,3.06
2017-05-23T14:04:11.309Z,3.14
2017-05-23T14:06:40.474Z,3.40
2017-05-23T14:09:09.491Z,3.58
2017-05-23T14:11:38.556Z,3.98
2017-05-23T14:14:07.578Z,3.44
2017-05-23T14:16:36.619Z,3.42
2017-05-23T14:19:05.650Z,3.36
2017-05-23T14:21:34.686Z,3.54
2017-05-23T14:24:03.750Z,3.26
2017-05-23T14:26:32.767Z,2.94
2017-05-23T14:29:01.866Z,2.96
2017-05-23T14:31:30.958Z,3.16
2017-05-23T14:33:59.998Z,2.84
2017-05-23T14:36:29.405Z,2.44
2017-05-23T14:38:58.516Z,2.60
2017-05-23T14:41:27.524Z,2.36
2017-05-23T14:43:56.643Z,3.28
2017-05-23T14:46:26.434Z,2.70
2017-05-23T14:48:55.637Z,3.10
2017-05-23T14:51:24.658Z,2.38
2017-05-23T14:53:53.722Z,2.30
2017-05-23T14:56:22.736Z,2.68
2017-05-23T14:58:51.750Z,2.64
2017-05-23T15:01:20.779Z,2.88
2017-05-23T15:03:49.806Z,2.62
2017-05-23T15:06:18.859Z,2.56
2017-05-23T15:08:47.868Z,3.10
2017-05-23T15:13:13.422Z,3.40
2017-05-23T15:15:42.563Z,2.98
2017-05-23T15:18:11.570Z,2.92
2017-05-23T15:20:40.606Z,2.74
2017-05-23T15:23:09.701Z,2.76
2017-05-23T15:25:38.803Z,3.38
2017-05-23T15:28:07.890Z,3.22
2017-05-23T15:30:36.969Z,2.90
2017-05-23T15:33:05.981Z,2.82
2017-05-23T15:35:35.011Z,2.44
2017-05-23T15:38:04.075Z,3.16
2017-05-23T15:40:33.118Z,2.68
2017-05-23T15:43:02.257Z,3.00
2017-05-23T15:45:31.339Z,3.48
2017-05-23T15:48:00.531Z,3.30
2017-05-23T15:50:29.746Z,3.98
2017-05-23T15:52:58.848Z,2.94
2017-05-23T15:55:27.192Z,3.34
2017-05-23T15:57:56.418Z,2.88
2017-05-23T16:00:24.685Z,3.18
2017-05-23T16:02:53.006Z,3.58
2017-05-23T16:05:22.035Z,2.84
2017-05-23T16:07:51.116Z,3.20
2017-05-23T16:10:20.185Z,3.82
2017-05-23T16:12:49.222Z,3.30
2017-05-23T16:15:18.347Z,2.72
2017-05-23T16:17:47.433Z,3.50
2017-05-23T16:20:16.480Z,3.40
2017-05-23T16:22:45.702Z,3.10
2017-05-23T16:25:15.147Z,3.52
2017-05-23T16:27:44.249Z,3.32
2017-05-23T16:30:13.321Z,2.58
2017-05-23T16:32:42.568Z,4.70
2017-05-23T16:35:11.698Z,3.38
2017-05-23T16:37:41.202Z,3.18
2017-05-23T16:40:10.305Z,2.80
2017-05-23T16:42:39.319Z,3.08
2017-05-23T16:45:08.358Z,3.00
2017-05-23T16:47:37.471Z,2.58
2017-05-23T16:50:06.578Z,3.08
2017-05-23T16:52:35.591Z,3.18
2017-05-23T16:55:04.756Z,3.20
2017-05-23T16:57:33.809Z,3.50
2017-05-23T17:00:02.828Z,3.54
2017-05-23T17:02:31.906Z,3.96
2017-05-23T17:05:00.969Z,3.62
2017-05-23T17:07:30.014Z,3.82
2017-05-23T17:09:59.132Z,3.92
2017-05-23T17:12:28.367Z,3.86
2017-05-23T17:14:57.375Z,4.46
2017-05-23T17:17:26.524Z,3.54
2017-05-23T17:19:55.527Z,4.20
2017-05-23T17:22:24.589Z,3.80
2017-05-23T17:24:53.695Z,5.16
2017-05-23T17:27:22.718Z,3.82
2017-05-23T17:29:51.736Z,4.84
2017-05-23T17:32:20.805Z,4.36
2017-05-23T17:34:49.838Z,4.06
2017-05-23T17:37:18.963Z,4.18
2017-05-23T17:39:48.194Z,5.04
2017-05-23T17:42:17.519Z,4.04
2017-05-23T17:44:46.802Z,4.64
2017-05-23T17:47:15.861Z,4.76
2017-05-23T17:49:45.086Z,4.70
2017-05-23T17:52:14.250Z,4.72
2017-05-23T17:54:43.491Z,5.30
2017-05-23T17:57:12.585Z,6.22
2017-05-23T17:59:41.652Z,5.40
2017-05-23T18:02:11.185Z,5.00
2017-05-23T18:04:40.300Z,5.82
2017-05-23T18:07:09.509Z,5.30
2017-05-23T18:09:38.687Z,5.80
2017-05-23T18:12:07.993Z,5.66
2017-05-23T18:14:37.331Z,5.30
2017-05-23T18:17:06.528Z,4.98
2017-05-23T18:19:35.602Z,5.52
2017-05-23T18:22:04.783Z,5.22
2017-05-23T18:24:34.125Z,5.96
2017-05-23T18:27:03.557Z,7.96
2017-05-23T18:29:32.695Z,7.00
2017-05-23T18:32:01.999Z,7.06
2017-05-23T18:34:31.083Z,7.58
2017-05-23T18:37:00.563Z,7.76
2017-05-23T18:39:29.744Z,8.50
2017-05-23T18:41:58.829Z,7.84
2017-05-23T18:44:27.908Z,6.34
2017-05-23T18:46:57.295Z,7.34
2017-05-23T18:49:26.465Z,7.36
2017-05-23T18:51:55.660Z,7.20
2017-05-23T18:54:24.784Z,30.54
2017-05-23T18:56:54.045Z,6.56
2017-05-23T18:59:23.303Z,6.96
2017-05-23T19:01:52.527Z,7.30
2017-05-23T19:04:21.573Z,7.36
2017-05-23T19:06:50.912Z,6.94
2017-05-23T19:09:20.036Z,6.92
2017-05-23T19:11:49.192Z,6.34
2017-05-23T19:14:18.388Z,6.46
2017-05-23T19:16:47.727Z,6.66
2017-05-23T19:19:16.808Z,6.02
2017-05-23T19:21:45.898Z,7.70
2017-05-23T19:24:15.060Z,6.62
2017-05-23T19:26:44.156Z,6.22
2017-05-23T19:29:13.186Z,6.36
2017-05-23T19:31:42.295Z,7.28
2017-05-23T19:34:11.945Z,6.70
2017-05-23T19:36:41.033Z,6.36
2017-05-23T19:39:10.170Z,6.00
2017-05-23T19:41:39.223Z,5.70
2017-05-23T19:44:08.577Z,5.62
2017-05-23T19:46:37.694Z,5.90
2017-05-23T19:49:06.733Z,5.50
2017-05-23T19:51:36.364Z,5.80
2017-05-23T19:54:06.075Z,5.78
2017-05-23T19:56:35.145Z,5.64
2017-05-23T19:59:04.360Z,4.93
2017-05-23T20:01:33.577Z,5.30
2017-05-23T20:04:02.632Z,4.60
2017-05-23T20:06:31.721Z,4.28
2017-05-23T20:09:00.913Z,4.28
2017-05-23T20:11:30.083Z,4.56
2017-05-23T20:13:59.113Z,4.12
2017-05-23T20:16:28.300Z,3.82
2017-05-23T20:18:57.410Z,3.66
2017-05-23T20:21:26.486Z,4.02
2017-05-23T20:23:55.587Z,3.70
2017-05-23T20:26:24.984Z,3.74
2017-05-23T20:28:54.494Z,3.48
2017-05-23T20:31:23.599Z,3.20
2017-05-23T20:33:52.692Z,2.88
2017-05-23T20:36:21.817Z,3.88
2017-05-23T20:38:51.069Z,3.50
2017-05-23T20:41:20.215Z,2.42
2017-05-23T20:43:49.722Z,3.08
2017-05-23T20:46:18.812Z,2.68
2017-05-23T20:48:48.332Z,2.84
2017-05-23T20:51:17.529Z,2.40
2017-05-23T20:53:46.915Z,2.52
2017-05-23T20:56:16.205Z,2.50
2017-05-23T20:58:45.496Z,2.68
2017-05-23T21:01:14.569Z,2.80
2017-05-23T21:03:43.721Z,2.08
2017-05-23T21:06:12.964Z,3.20
2017-05-23T21:08:42.203Z,2.58
2017-05-23T21:11:11.493Z,1.82
2017-05-23T21:13:40.501Z,2.24
2017-05-23T21:16:09.802Z,2.14
2017-05-23T21:18:39.108Z,2.50
2017-05-23T21:21:08.663Z,1.74
2017-05-23T21:23:37.874Z,1.90
2017-05-23T21:26:07.090Z,1.64
2017-05-23T21:28:36.294Z,1.92
2017-05-23T21:31:05.416Z,2.12
2017-05-23T21:33:34.472Z,1.60
2017-05-23T21:36:03.496Z,2.10
2017-05-23T21:38:33.068Z,1.92
2017-05-23T21:41:02.157Z,1.68
2017-05-23T21:43:31.256Z,1.52
2017-05-23T21:46:00.412Z,2.10
2017-05-23T21:48:29.422Z,1.46
2017-05-23T21:50:58.473Z,1.72
2017-05-23T21:53:27.594Z,1.50
2017-05-23T21:55:56.647Z,1.58
2017-05-23T21:58:25.753Z,1.82
2017-05-23T22:00:54.862Z,1.50
2017-05-23T22:03:23.947Z,1.30
2017-05-23T22:05:53.216Z,1.60
2017-05-23T22:08:22.336Z,1.74
2017-05-23T22:10:51.444Z,1.40
2017-05-23T22:13:21.158Z,1.66
2017-05-23T22:15:50.416Z,1.80
2017-05-23T22:18:19.460Z,1.28
2017-05-23T22:20:48.511Z,1.30
2017-05-23T22:23:17.632Z,1.22
2017-05-23T22:25:46.800Z,1.24
2017-05-23T22:28:15.836Z,1.62
2017-05-23T22:30:44.925Z,1.08
2017-05-23T22:33:14.502Z,1.60
2017-05-23T22:35:43.619Z,1.30
2017-05-23T22:38:12.729Z,1.56
2017-05-23T22:40:41.860Z,1.40
2017-05-23T22:43:11.082Z,1.40
2017-05-23T22:45:40.278Z,1.30
2017-05-23T22:48:09.369Z,1.38
2017-05-23T22:50:38.842Z,1.10
2017-05-23T22:53:08.039Z,1.72
2017-05-23T22:55:37.022Z,1.70
2017-05-23T22:58:06.127Z,1.60
2017-05-23T23:00:35.267Z,1.82
2017-05-23T23:03:04.480Z,1.40
2017-05-23T23:05:33.707Z,1.06
2017-05-23T23:08:02.787Z,1.68
2017-05-23T23:10:32.176Z,1.84
2017-05-23T23:13:01.239Z,1.70
2017-05-23T23:15:30.442Z,1.20
2017-05-23T23:17:59.510Z,1.64
2017-05-23T23:20:28.618Z,1.20
2017-05-23T23:22:57.737Z,1.32
2017-05-23T23:25:26.856Z,1.42
2017-05-23T23:27:56.006Z,1.46
2017-05-23T23:30:25.516Z,1.32
2017-05-23T23:32:54.611Z,1.46
2017-05-23T23:35:23.669Z,1.90
2017-05-23T23:37:53.064Z,1.68
2017-05-23T23:40:22.209Z,1.30
2017-05-23T23:42:51.468Z,1.68
2017-05-23T23:45:20.576Z,1.90
2017-05-23T23:47:49.750Z,1.58
2017-05-23T23:50:18.821Z,1.70
2017-05-23T23:52:47.963Z,1.30
2017-05-23T23:55:17.082Z,1.92
2017-05-23T23:57:46.329Z,1.80
